Terminal Aerodrome Forecast
Issued by NWS Duluth, MN

Home | Current Version | Previous Version | Text Only | Print | Product List | Glossary On
Versions: 1 2 3 4 5 6 7 8 9 10 11 12 13 14 15 16 17 18 19 20 21 22 23 24
498
FTUS43 KDLH 271725
TAFINL
TAF
KINL 271725Z 2718/2818 22011G18KT P6SM SCT080
     FM280100 19006KT P6SM SCT100
     FM280600 16005KT P6SM VCSH SCT025 BKN050
     FM281200 13009KT 6SM -RA OVC025
     FM281600 14008KT 5SM -RA BR OVC015=

USA.gov is the U.S. government's official web portal to all federal, state and local government web resources and services.